sensor_id;sensor_type;location;lat;lon;timestamp;P1;durP1;ratioP1;P2;durP2;ratioP2
40367;SDS011;26075;43.320;21.920;2023-09-07T00:03:52;11.38;;;7.65;;
40367;SDS011;26075;43.320;21.920;2023-09-07T00:08:53;10.27;;;7.70;;
40367;SDS011;26075;43.320;21.920;2023-09-07T00:13:54;12.68;;;8.52;;
40367;SDS011;26075;43.320;21.920;2023-09-07T00:18:54;9.32;;;7.22;;
40367;SDS011;26075;43.320;21.920;2023-09-07T00:23:56;11.10;;;8.18;;
40367;SDS011;26075;43.320;21.920;2023-09-07T00:28:56;10.23;;;7.85;;
40367;SDS011;26075;43.320;21.920;2023-09-07T00:33:57;10.20;;;7.78;;
40367;SDS011;26075;43.320;21.920;2023-09-07T00:38:58;9.50;;;7.55;;
40367;SDS011;26075;43.320;21.920;2023-09-07T00:43:59;11.65;;;7.47;;
40367;SDS011;26075;43.320;21.920;2023-09-07T00:49:00;9.90;;;7.45;;
40367;SDS011;26075;43.320;21.920;2023-09-07T00:54:01;9.57;;;7.72;;
40367;SDS011;26075;43.320;21.920;2023-09-07T00:59:02;9.52;;;7.68;;
40367;SDS011;26075;43.320;21.920;2023-09-07T01:04:04;9.73;;;7.40;;
40367;SDS011;26075;43.320;21.920;2023-09-07T01:09:06;12.27;;;7.78;;
40367;SDS011;26075;43.320;21.920;2023-09-07T01:14:13;8.77;;;6.82;;
40367;SDS011;26075;43.320;21.920;2023-09-07T01:19:13;10.85;;;7.28;;
40367;SDS011;26075;43.320;21.920;2023-09-07T01:24:14;12.95;;;7.65;;
40367;SDS011;26075;43.320;21.920;2023-09-07T01:29:16;9.98;;;7.97;;
40367;SDS011;26075;43.320;21.920;2023-09-07T01:34:17;13.80;;;7.65;;
40367;SDS011;26075;43.320;21.920;2023-09-07T01:39:18;11.63;;;7.40;;
40367;SDS011;26075;43.320;21.920;2023-09-07T01:44:19;9.48;;;7.57;;
40367;SDS011;26075;43.320;21.920;2023-09-07T01:49:19;9.48;;;7.30;;
40367;SDS011;26075;43.320;21.920;2023-09-07T01:54:23;10.63;;;7.72;;
40367;SDS011;26075;43.320;21.920;2023-09-07T01:59:24;9.85;;;7.03;;
40367;SDS011;26075;43.320;21.920;2023-09-07T02:04:25;8.05;;;7.25;;
40367;SDS011;26075;43.320;21.920;2023-09-07T02:09:26;8.00;;;6.75;;
40367;SDS011;26075;43.320;21.920;2023-09-07T02:14:27;9.23;;;7.43;;
40367;SDS011;26075;43.320;21.920;2023-09-07T02:19:27;7.82;;;6.55;;
40367;SDS011;26075;43.320;21.920;2023-09-07T02:24:28;7.72;;;6.68;;
40367;SDS011;26075;43.320;21.920;2023-09-07T02:29:30;9.13;;;6.68;;
40367;SDS011;26075;43.320;21.920;2023-09-07T02:34:31;9.68;;;7.45;;
40367;SDS011;26075;43.320;21.920;2023-09-07T02:39:36;9.35;;;7.60;;
40367;SDS011;26075;43.320;21.920;2023-09-07T02:44:37;10.75;;;7.20;;
40367;SDS011;26075;43.320;21.920;2023-09-07T02:49:38;9.45;;;6.85;;
40367;SDS011;26075;43.320;21.920;2023-09-07T02:54:39;10.40;;;7.25;;
40367;SDS011;26075;43.320;21.920;2023-09-07T02:59:41;8.77;;;6.90;;
40367;SDS011;26075;43.320;21.920;2023-09-07T03:04:42;10.63;;;6.85;;
40367;SDS011;26075;43.320;21.920;2023-09-07T03:09:43;10.82;;;7.45;;
40367;SDS011;26075;43.320;21.920;2023-09-07T03:14:44;11.55;;;6.65;;
40367;SDS011;26075;43.320;21.920;2023-09-07T03:19:46;10.35;;;7.25;;
40367;SDS011;26075;43.320;21.920;2023-09-07T03:24:48;9.65;;;6.93;;
40367;SDS011;26075;43.320;21.920;2023-09-07T03:29:50;11.30;;;6.68;;
40367;SDS011;26075;43.320;21.920;2023-09-07T03:34:53;9.18;;;6.90;;
40367;SDS011;26075;43.320;21.920;2023-09-07T03:39:55;10.38;;;7.15;;
40367;SDS011;26075;43.320;21.920;2023-09-07T03:44:56;10.68;;;7.40;;
40367;SDS011;26075;43.320;21.920;2023-09-07T03:49:57;9.85;;;6.88;;
40367;SDS011;26075;43.320;21.920;2023-09-07T03:54:59;8.23;;;6.45;;
40367;SDS011;26075;43.320;21.920;2023-09-07T04:00:00;9.73;;;6.90;;
40367;SDS011;26075;43.320;21.920;2023-09-07T04:05:01;8.35;;;6.28;;
40367;SDS011;26075;43.320;21.920;2023-09-07T04:10:05;8.85;;;6.60;;
40367;SDS011;26075;43.320;21.920;2023-09-07T04:15:06;9.80;;;7.55;;
40367;SDS011;26075;43.320;21.920;2023-09-07T04:20:07;9.52;;;7.22;;
40367;SDS011;26075;43.320;21.920;2023-09-07T04:25:09;12.30;;;6.45;;
40367;SDS011;26075;43.320;21.920;2023-09-07T04:30:10;14.43;;;7.28;;
40367;SDS011;26075;43.320;21.920;2023-09-07T04:35:11;12.65;;;7.15;;
40367;SDS011;26075;43.320;21.920;2023-09-07T04:40:12;9.82;;;7.20;;
40367;SDS011;26075;43.320;21.920;2023-09-07T04:45:13;10.57;;;6.90;;
40367;SDS011;26075;43.320;21.920;2023-09-07T04:50:14;12.95;;;7.50;;
40367;SDS011;26075;43.320;21.920;2023-09-07T04:55:15;10.77;;;6.70;;
40367;SDS011;26075;43.320;21.920;2023-09-07T05:00:16;11.00;;;6.70;;
40367;SDS011;26075;43.320;21.920;2023-09-07T05:05:18;10.80;;;5.70;;
40367;SDS011;26075;43.320;21.920;2023-09-07T05:10:19;11.07;;;6.38;;
40367;SDS011;26075;43.320;21.920;2023-09-07T05:15:20;8.80;;;5.38;;
40367;SDS011;26075;43.320;21.920;2023-09-07T05:20:21;9.05;;;5.10;;
40367;SDS011;26075;43.320;21.920;2023-09-07T05:25:22;14.20;;;5.75;;
40367;SDS011;26075;43.320;21.920;2023-09-07T05:30:23;8.70;;;5.63;;
40367;SDS011;26075;43.320;21.920;2023-09-07T05:35:24;8.55;;;5.38;;
40367;SDS011;26075;43.320;21.920;2023-09-07T05:40:27;7.95;;;5.05;;
40367;SDS011;26075;43.320;21.920;2023-09-07T05:45:29;9.93;;;5.30;;
40367;SDS011;26075;43.320;21.920;2023-09-07T05:50:33;7.30;;;4.53;;
40367;SDS011;26075;43.320;21.920;2023-09-07T05:55:34;8.48;;;4.55;;
40367;SDS011;26075;43.320;21.920;2023-09-07T06:00:35;9.15;;;4.60;;
40367;SDS011;26075;43.320;21.920;2023-09-07T06:05:39;7.03;;;4.68;;
40367;SDS011;26075;43.320;21.920;2023-09-07T06:10:40;9.02;;;4.75;;
40367;SDS011;26075;43.320;21.920;2023-09-07T06:15:41;7.07;;;4.45;;
40367;SDS011;26075;43.320;21.920;2023-09-07T06:20:42;7.30;;;4.70;;
40367;SDS011;26075;43.320;21.920;2023-09-07T06:25:46;7.05;;;4.60;;
40367;SDS011;26075;43.320;21.920;2023-09-07T06:30:47;11.02;;;5.43;;
40367;SDS011;26075;43.320;21.920;2023-09-07T06:35:48;6.43;;;4.45;;
40367;SDS011;26075;43.320;21.920;2023-09-07T06:40:48;8.57;;;4.40;;
40367;SDS011;26075;43.320;21.920;2023-09-07T06:45:49;8.18;;;5.00;;
40367;SDS011;26075;43.320;21.920;2023-09-07T06:50:50;5.88;;;4.82;;
40367;SDS011;26075;43.320;21.920;2023-09-07T06:56:02;7.82;;;5.00;;
40367;SDS011;26075;43.320;21.920;2023-09-07T07:01:03;14.63;;;5.75;;
40367;SDS011;26075;43.320;21.920;2023-09-07T07:06:07;10.13;;;5.13;;
40367;SDS011;26075;43.320;21.920;2023-09-07T07:11:08;9.48;;;6.15;;
40367;SDS011;26075;43.320;21.920;2023-09-07T07:16:09;10.73;;;5.18;;
40367;SDS011;26075;43.320;21.920;2023-09-07T07:21:10;9.05;;;5.00;;
40367;SDS011;26075;43.320;21.920;2023-09-07T07:26:11;8.05;;;5.05;;
40367;SDS011;26075;43.320;21.920;2023-09-07T07:31:12;6.28;;;4.40;;
40367;SDS011;26075;43.320;21.920;2023-09-07T07:36:13;8.07;;;4.60;;
40367;SDS011;26075;43.320;21.920;2023-09-07T07:41:14;8.02;;;5.65;;
40367;SDS011;26075;43.320;21.920;2023-09-07T07:46:15;7.38;;;5.00;;
40367;SDS011;26075;43.320;21.920;2023-09-07T07:51:16;8.02;;;5.88;;
40367;SDS011;26075;43.320;21.920;2023-09-07T07:56:17;10.02;;;5.03;;
40367;SDS011;26075;43.320;21.920;2023-09-07T08:01:19;9.93;;;5.50;;
40367;SDS011;26075;43.320;21.920;2023-09-07T08:06:20;7.30;;;4.53;;
40367;SDS011;26075;43.320;21.920;2023-09-07T08:11:21;7.35;;;5.13;;
40367;SDS011;26075;43.320;21.920;2023-09-07T08:16:22;6.75;;;4.97;;
40367;SDS011;26075;43.320;21.920;2023-09-07T08:21:22;8.80;;;5.47;;
40367;SDS011;26075;43.320;21.920;2023-09-07T08:26:23;7.32;;;5.65;;
40367;SDS011;26075;43.320;21.920;2023-09-07T08:31:24;10.43;;;5.70;;
40367;SDS011;26075;43.320;21.920;2023-09-07T08:36:26;10.35;;;5.72;;
40367;SDS011;26075;43.320;21.920;2023-09-07T08:41:29;8.82;;;5.45;;
40367;SDS011;26075;43.320;21.920;2023-09-07T08:46:30;9.38;;;5.57;;
40367;SDS011;26075;43.320;21.920;2023-09-07T08:51:31;10.43;;;5.10;;
40367;SDS011;26075;43.320;21.920;2023-09-07T08:56:33;9.43;;;5.78;;
40367;SDS011;26075;43.320;21.920;2023-09-07T09:01:34;8.20;;;5.30;;
40367;SDS011;26075;43.320;21.920;2023-09-07T09:06:53;9.05;;;5.35;;
40367;SDS011;26075;43.320;21.920;2023-09-07T09:11:54;8.25;;;5.20;;
40367;SDS011;26075;43.320;21.920;2023-09-07T09:16:55;9.13;;;5.35;;
40367;SDS011;26075;43.320;21.920;2023-09-07T09:21:56;11.82;;;5.50;;
40367;SDS011;26075;43.320;21.920;2023-09-07T09:26:57;10.23;;;5.38;;
40367;SDS011;26075;43.320;21.920;2023-09-07T09:31:59;14.05;;;5.93;;
40367;SDS011;26075;43.320;21.920;2023-09-07T09:37:04;12.60;;;6.07;;
40367;SDS011;26075;43.320;21.920;2023-09-07T09:42:13;8.65;;;5.07;;
40367;SDS011;26075;43.320;21.920;2023-09-07T09:47:14;9.93;;;5.10;;
40367;SDS011;26075;43.320;21.920;2023-09-07T09:52:16;10.43;;;4.88;;
40367;SDS011;26075;43.320;21.920;2023-09-07T09:57:17;14.88;;;5.10;;
40367;SDS011;26075;43.320;21.920;2023-09-07T10:02:18;11.40;;;6.03;;
40367;SDS011;26075;43.320;21.920;2023-09-07T10:07:19;10.10;;;5.03;;
40367;SDS011;26075;43.320;21.920;2023-09-07T10:12:26;12.50;;;5.18;;
40367;SDS011;26075;43.320;21.920;2023-09-07T10:17:27;9.85;;;4.85;;
40367;SDS011;26075;43.320;21.920;2023-09-07T10:22:29;7.45;;;5.32;;
40367;SDS011;26075;43.320;21.920;2023-09-07T10:27:36;14.00;;;5.80;;
40367;SDS011;26075;43.320;21.920;2023-09-07T10:32:39;14.35;;;5.72;;
40367;SDS011;26075;43.320;21.920;2023-09-07T10:37:44;7.28;;;4.90;;
40367;SDS011;26075;43.320;21.920;2023-09-07T10:42:48;10.20;;;5.05;;
40367;SDS011;26075;43.320;21.920;2023-09-07T10:47:49;9.38;;;4.95;;
40367;SDS011;26075;43.320;21.920;2023-09-07T10:52:53;6.97;;;5.10;;
40367;SDS011;26075;43.320;21.920;2023-09-07T10:57:54;9.60;;;4.57;;
40367;SDS011;26075;43.320;21.920;2023-09-07T11:02:55;6.50;;;4.35;;
40367;SDS011;26075;43.320;21.920;2023-09-07T11:07:55;10.13;;;5.07;;
40367;SDS011;26075;43.320;21.920;2023-09-07T11:13:04;7.30;;;5.30;;
40367;SDS011;26075;43.320;21.920;2023-09-07T11:23:07;9.90;;;5.13;;
40367;SDS011;26075;43.320;21.920;2023-09-07T11:28:08;7.60;;;4.85;;
40367;SDS011;26075;43.320;21.920;2023-09-07T11:33:10;8.98;;;5.03;;
40367;SDS011;26075;43.320;21.920;2023-09-07T11:38:12;9.02;;;5.65;;
40367;SDS011;26075;43.320;21.920;2023-09-07T11:43:14;9.02;;;5.25;;
40367;SDS011;26075;43.320;21.920;2023-09-07T11:48:16;11.85;;;5.40;;
40367;SDS011;26075;43.320;21.920;2023-09-07T11:53:17;9.38;;;5.57;;
40367;SDS011;26075;43.320;21.920;2023-09-07T11:58:18;10.07;;;4.72;;
40367;SDS011;26075;43.320;21.920;2023-09-07T12:03:19;8.32;;;5.10;;
40367;SDS011;26075;43.320;21.920;2023-09-07T12:08:20;7.40;;;4.72;;
40367;SDS011;26075;43.320;21.920;2023-09-07T12:13:21;11.65;;;4.55;;
40367;SDS011;26075;43.320;21.920;2023-09-07T12:18:22;14.68;;;5.40;;
40367;SDS011;26075;43.320;21.920;2023-09-07T12:23:23;9.20;;;4.78;;
40367;SDS011;26075;43.320;21.920;2023-09-07T12:28:25;8.50;;;5.32;;
40367;SDS011;26075;43.320;21.920;2023-09-07T12:33:26;10.75;;;4.45;;
40367;SDS011;26075;43.320;21.920;2023-09-07T12:38:30;8.70;;;4.80;;
40367;SDS011;26075;43.320;21.920;2023-09-07T12:43:30;8.20;;;4.13;;
40367;SDS011;26075;43.320;21.920;2023-09-07T12:48:32;10.07;;;4.40;;
40367;SDS011;26075;43.320;21.920;2023-09-07T12:53:33;7.13;;;3.97;;
40367;SDS011;26075;43.320;21.920;2023-09-07T12:58:34;10.32;;;3.97;;
40367;SDS011;26075;43.320;21.920;2023-09-07T13:03:34;8.82;;;4.30;;
40367;SDS011;26075;43.320;21.920;2023-09-07T13:08:35;9.40;;;4.15;;
40367;SDS011;26075;43.320;21.920;2023-09-07T13:13:37;6.45;;;4.15;;
40367;SDS011;26075;43.320;21.920;2023-09-07T13:18:38;12.90;;;4.78;;
40367;SDS011;26075;43.320;21.920;2023-09-07T13:23:39;12.10;;;7.18;;
40367;SDS011;26075;43.320;21.920;2023-09-07T13:28:41;9.73;;;4.45;;
40367;SDS011;26075;43.320;21.920;2023-09-07T13:33:42;7.40;;;4.60;;
40367;SDS011;26075;43.320;21.920;2023-09-07T13:38:43;11.18;;;7.45;;
40367;SDS011;26075;43.320;21.920;2023-09-07T13:43:44;9.00;;;5.72;;
40367;SDS011;26075;43.320;21.920;2023-09-07T13:48:44;7.93;;;5.07;;
40367;SDS011;26075;43.320;21.920;2023-09-07T13:53:45;8.20;;;5.22;;
40367;SDS011;26075;43.320;21.920;2023-09-07T13:58:46;9.15;;;4.40;;
40367;SDS011;26075;43.320;21.920;2023-09-07T14:03:47;10.88;;;4.85;;
40367;SDS011;26075;43.320;21.920;2023-09-07T14:08:48;7.78;;;4.35;;
40367;SDS011;26075;43.320;21.920;2023-09-07T14:13:51;8.57;;;4.30;;
40367;SDS011;26075;43.320;21.920;2023-09-07T14:18:51;14.88;;;4.10;;
40367;SDS011;26075;43.320;21.920;2023-09-07T14:23:53;8.52;;;4.30;;
40367;SDS011;26075;43.320;21.920;2023-09-07T14:28:54;8.60;;;5.07;;
40367;SDS011;26075;43.320;21.920;2023-09-07T14:33:55;6.50;;;4.72;;
40367;SDS011;26075;43.320;21.920;2023-09-07T14:38:55;7.15;;;5.07;;
40367;SDS011;26075;43.320;21.920;2023-09-07T14:43:57;12.70;;;5.90;;
40367;SDS011;26075;43.320;21.920;2023-09-07T14:48:57;8.27;;;5.72;;
40367;SDS011;26075;43.320;21.920;2023-09-07T14:53:58;9.25;;;5.10;;
40367;SDS011;26075;43.320;21.920;2023-09-07T14:58:59;9.68;;;6.18;;
40367;SDS011;26075;43.320;21.920;2023-09-07T15:04:00;10.20;;;6.80;;
40367;SDS011;26075;43.320;21.920;2023-09-07T15:09:01;9.10;;;7.18;;
40367;SDS011;26075;43.320;21.920;2023-09-07T15:14:04;8.52;;;6.65;;
40367;SDS011;26075;43.320;21.920;2023-09-07T15:19:05;11.48;;;8.23;;
40367;SDS011;26075;43.320;21.920;2023-09-07T15:24:06;8.48;;;5.88;;
40367;SDS011;26075;43.320;21.920;2023-09-07T15:29:07;8.82;;;5.93;;
40367;SDS011;26075;43.320;21.920;2023-09-07T15:34:08;10.35;;;7.05;;
40367;SDS011;26075;43.320;21.920;2023-09-07T15:39:09;10.48;;;6.30;;
40367;SDS011;26075;43.320;21.920;2023-09-07T15:44:10;11.15;;;5.88;;
40367;SDS011;26075;43.320;21.920;2023-09-07T15:49:11;10.50;;;6.30;;
40367;SDS011;26075;43.320;21.920;2023-09-07T15:54:12;6.35;;;5.10;;
40367;SDS011;26075;43.320;21.920;2023-09-07T15:59:13;9.30;;;5.43;;
40367;SDS011;26075;43.320;21.920;2023-09-07T16:04:14;11.25;;;5.72;;
40367;SDS011;26075;43.320;21.920;2023-09-07T16:09:15;11.10;;;5.88;;
40367;SDS011;26075;43.320;21.920;2023-09-07T16:14:16;10.27;;;6.55;;
40367;SDS011;26075;43.320;21.920;2023-09-07T16:19:17;10.00;;;6.50;;
40367;SDS011;26075;43.320;21.920;2023-09-07T16:24:18;11.27;;;5.68;;
40367;SDS011;26075;43.320;21.920;2023-09-07T16:29:19;9.18;;;7.32;;
40367;SDS011;26075;43.320;21.920;2023-09-07T16:34:20;11.70;;;6.80;;
40367;SDS011;26075;43.320;21.920;2023-09-07T16:39:20;9.30;;;5.63;;
40367;SDS011;26075;43.320;21.920;2023-09-07T16:44:22;8.00;;;6.18;;
40367;SDS011;26075;43.320;21.920;2023-09-07T16:49:22;9.25;;;6.72;;
40367;SDS011;26075;43.320;21.920;2023-09-07T16:54:23;13.05;;;5.63;;
40367;SDS011;26075;43.320;21.920;2023-09-07T16:59:24;10.88;;;5.38;;
40367;SDS011;26075;43.320;21.920;2023-09-07T17:04:32;9.50;;;6.38;;
40367;SDS011;26075;43.320;21.920;2023-09-07T17:09:34;19.40;;;12.43;;
40367;SDS011;26075;43.320;21.920;2023-09-07T17:14:36;22.15;;;14.80;;
40367;SDS011;26075;43.320;21.920;2023-09-07T17:19:36;15.10;;;11.27;;
40367;SDS011;26075;43.320;21.920;2023-09-07T17:24:37;19.30;;;14.15;;
40367;SDS011;26075;43.320;21.920;2023-09-07T17:29:38;19.35;;;11.82;;
40367;SDS011;26075;43.320;21.920;2023-09-07T17:34:39;17.58;;;10.82;;
40367;SDS011;26075;43.320;21.920;2023-09-07T17:39:40;21.27;;;9.88;;
40367;SDS011;26075;43.320;21.920;2023-09-07T17:44:41;24.23;;;16.98;;
40367;SDS011;26075;43.320;21.920;2023-09-07T17:49:42;16.95;;;10.15;;
40367;SDS011;26075;43.320;21.920;2023-09-07T17:54:44;14.38;;;9.57;;
40367;SDS011;26075;43.320;21.920;2023-09-07T17:59:45;15.60;;;10.38;;
40367;SDS011;26075;43.320;21.920;2023-09-07T18:04:46;12.07;;;9.90;;
40367;SDS011;26075;43.320;21.920;2023-09-07T18:09:47;16.90;;;10.15;;
40367;SDS011;26075;43.320;21.920;2023-09-07T18:14:48;13.48;;;8.93;;
40367;SDS011;26075;43.320;21.920;2023-09-07T18:19:49;12.90;;;9.15;;
40367;SDS011;26075;43.320;21.920;2023-09-07T18:24:51;13.63;;;8.85;;
40367;SDS011;26075;43.320;21.920;2023-09-07T18:29:52;10.88;;;8.40;;
40367;SDS011;26075;43.320;21.920;2023-09-07T18:34:52;13.38;;;9.20;;
40367;SDS011;26075;43.320;21.920;2023-09-07T18:39:53;10.93;;;7.68;;
40367;SDS011;26075;43.320;21.920;2023-09-07T18:44:54;13.85;;;6.75;;
40367;SDS011;26075;43.320;21.920;2023-09-07T18:49:55;11.32;;;7.18;;
40367;SDS011;26075;43.320;21.920;2023-09-07T18:54:57;11.52;;;7.85;;
40367;SDS011;26075;43.320;21.920;2023-09-07T18:59:58;13.32;;;7.63;;
40367;SDS011;26075;43.320;21.920;2023-09-07T19:04:59;11.38;;;7.18;;
40367;SDS011;26075;43.320;21.920;2023-09-07T19:10:00;13.95;;;7.28;;
40367;SDS011;26075;43.320;21.920;2023-09-07T19:15:02;12.07;;;7.45;;
40367;SDS011;26075;43.320;21.920;2023-09-07T19:20:03;18.27;;;7.30;;
40367;SDS011;26075;43.320;21.920;2023-09-07T19:25:04;12.00;;;7.00;;
40367;SDS011;26075;43.320;21.920;2023-09-07T19:30:06;11.82;;;7.05;;
40367;SDS011;26075;43.320;21.920;2023-09-07T19:35:08;11.43;;;7.32;;
40367;SDS011;26075;43.320;21.920;2023-09-07T19:40:09;15.23;;;7.28;;
40367;SDS011;26075;43.320;21.920;2023-09-07T19:45:11;11.55;;;7.55;;
40367;SDS011;26075;43.320;21.920;2023-09-07T19:50:12;13.43;;;7.40;;
40367;SDS011;26075;43.320;21.920;2023-09-07T19:55:13;14.18;;;7.32;;
40367;SDS011;26075;43.320;21.920;2023-09-07T20:00:14;15.73;;;8.15;;
40367;SDS011;26075;43.320;21.920;2023-09-07T20:05:15;13.30;;;6.72;;
40367;SDS011;26075;43.320;21.920;2023-09-07T20:10:16;12.55;;;7.85;;
40367;SDS011;26075;43.320;21.920;2023-09-07T20:15:19;20.63;;;7.80;;
40367;SDS011;26075;43.320;21.920;2023-09-07T20:20:19;15.82;;;8.43;;
40367;SDS011;26075;43.320;21.920;2023-09-07T20:25:20;13.27;;;8.00;;
40367;SDS011;26075;43.320;21.920;2023-09-07T20:30:21;14.45;;;7.00;;
40367;SDS011;26075;43.320;21.920;2023-09-07T20:35:23;11.75;;;7.95;;
40367;SDS011;26075;43.320;21.920;2023-09-07T20:40:30;10.10;;;7.07;;
40367;SDS011;26075;43.320;21.920;2023-09-07T20:45:31;10.95;;;6.88;;
40367;SDS011;26075;43.320;21.920;2023-09-07T20:50:32;11.70;;;7.13;;
40367;SDS011;26075;43.320;21.920;2023-09-07T21:00:28;8.90;;;6.65;;
40367;SDS011;26075;43.320;21.920;2023-09-07T21:05:29;10.80;;;6.40;;
40367;SDS011;26075;43.320;21.920;2023-09-07T21:10:30;11.80;;;6.93;;
40367;SDS011;26075;43.320;21.920;2023-09-07T21:15:31;11.90;;;6.93;;
40367;SDS011;26075;43.320;21.920;2023-09-07T21:20:32;9.63;;;5.90;;
40367;SDS011;26075;43.320;21.920;2023-09-07T21:25:33;11.75;;;7.07;;
40367;SDS011;26075;43.320;21.920;2023-09-07T21:30:34;13.73;;;7.63;;
40367;SDS011;26075;43.320;21.920;2023-09-07T21:35:35;11.70;;;6.53;;
40367;SDS011;26075;43.320;21.920;2023-09-07T21:40:35;10.93;;;6.13;;
40367;SDS011;26075;43.320;21.920;2023-09-07T21:45:36;8.55;;;6.57;;
40367;SDS011;26075;43.320;21.920;2023-09-07T21:50:37;8.52;;;5.85;;
40367;SDS011;26075;43.320;21.920;2023-09-07T21:55:38;12.00;;;6.93;;
40367;SDS011;26075;43.320;21.920;2023-09-07T22:00:40;12.55;;;7.18;;
40367;SDS011;26075;43.320;21.920;2023-09-07T22:05:42;9.73;;;6.15;;
40367;SDS011;26075;43.320;21.920;2023-09-07T22:10:52;12.55;;;7.13;;
40367;SDS011;26075;43.320;21.920;2023-09-07T22:15:53;10.63;;;6.97;;
40367;SDS011;26075;43.320;21.920;2023-09-07T22:20:54;10.77;;;6.78;;
40367;SDS011;26075;43.320;21.920;2023-09-07T22:25:55;10.05;;;6.30;;
40367;SDS011;26075;43.320;21.920;2023-09-07T22:30:57;9.13;;;6.50;;
40367;SDS011;26075;43.320;21.920;2023-09-07T22:35:58;9.55;;;6.85;;
40367;SDS011;26075;43.320;21.920;2023-09-07T22:40:59;8.68;;;6.38;;
40367;SDS011;26075;43.320;21.920;2023-09-07T22:45:59;8.60;;;6.47;;
40367;SDS011;26075;43.320;21.920;2023-09-07T22:51:00;8.00;;;6.43;;
40367;SDS011;26075;43.320;21.920;2023-09-07T22:56:01;11.52;;;6.32;;
40367;SDS011;26075;43.320;21.920;2023-09-07T23:01:02;10.82;;;6.88;;
40367;SDS011;26075;43.320;21.920;2023-09-07T23:06:04;9.95;;;6.43;;
40367;SDS011;26075;43.320;21.920;2023-09-07T23:11:05;10.60;;;6.18;;
40367;SDS011;26075;43.320;21.920;2023-09-07T23:16:07;8.85;;;6.07;;
40367;SDS011;26075;43.320;21.920;2023-09-07T23:21:08;10.45;;;6.18;;
40367;SDS011;26075;43.320;21.920;2023-09-07T23:26:09;8.38;;;5.57;;
40367;SDS011;26075;43.320;21.920;2023-09-07T23:31:10;11.43;;;5.55;;
40367;SDS011;26075;43.320;21.920;2023-09-07T23:36:12;7.90;;;5.93;;
40367;SDS011;26075;43.320;21.920;2023-09-07T23:41:13;9.75;;;6.13;;
40367;SDS011;26075;43.320;21.920;2023-09-07T23:46:14;8.93;;;6.07;;
40367;SDS011;26075;43.320;21.920;2023-09-07T23:51:14;8.10;;;6.00;;
40367;SDS011;26075;43.320;21.920;2023-09-07T23:56:15;10.43;;;6.22;;
